< < Back
Terminal Aerodrome Forecast


Current Version              Previous Versions:   1  2  3  4  5  6  7  8  9  

Terminal Aerodrome Forecast

658
FTUS42 KFFC 172356 AAA
TAFCSG
TAF AMD
KCSG 172356Z 1800/1824 08005KT 5SM -SHRA SCT006 SCT025 BKN040
      TEMPO 1800/1802 3SM SHRA BR
     FM180200 08003KT 4SM -SHRA BR OVC006
     FM180500 00000KT 2SM -DZ BR BKN004
     FM181500 09004KT 6SM BR BKN007
     FM181700 12005KT P6SM BKN022=

Latest METAR

511
SAUS70 KWBC 180600 RRX
MTRCSG
METAR KCSG 180651Z AUTO 00000KT 10SM OVC005 17/17 A2994 RMK AO2 SLP137
T01720167


USA.gov is the U.S. government's official web portal to all federal, state and local government web resources and services.